createdAt,value
2019-01-10T00:00:26.879Z,-1.59
2019-01-10T00:00:58.050Z,-1.56
2019-01-10T00:01:29.221Z,-1.58
2019-01-10T00:02:00.396Z,-1.59
2019-01-10T00:02:31.578Z,-1.59
2019-01-10T00:03:02.751Z,-1.61
2019-01-10T00:03:33.920Z,-1.62
2019-01-10T00:04:05.143Z,-1.62
2019-01-10T00:04:36.341Z,-1.61
2019-01-10T00:05:07.508Z,-1.61
2019-01-10T00:05:38.672Z,-1.62
2019-01-10T00:06:09.876Z,-1.67
2019-01-10T00:06:41.043Z,-1.64
2019-01-10T00:07:12.217Z,-1.63
2019-01-10T00:07:43.406Z,-1.65
2019-01-10T00:08:14.600Z,-1.65
2019-01-10T00:08:45.787Z,-1.67
2019-01-10T00:09:16.961Z,-1.69
2019-01-10T00:09:48.115Z,-1.73
2019-01-10T00:10:19.353Z,-1.70
2019-01-10T00:10:50.549Z,-1.66
2019-01-10T00:11:21.721Z,-1.62
2019-01-10T00:11:52.916Z,-1.57
2019-01-10T00:12:24.110Z,-1.58
2019-01-10T00:12:55.284Z,-1.60
2019-01-10T00:13:26.456Z,-1.57
2019-01-10T00:13:57.643Z,-1.50
2019-01-10T00:14:28.835Z,-1.53
2019-01-10T00:15:00.012Z,-1.53
2019-01-10T00:15:31.273Z,-1.52
2019-01-10T00:16:02.491Z,-1.51
2019-01-10T00:16:33.669Z,-1.48
2019-01-10T00:17:04.852Z,-1.46
2019-01-10T00:17:36.092Z,-1.42
2019-01-10T00:18:07.271Z,-1.42
2019-01-10T00:18:38.446Z,-1.47
2019-01-10T00:19:09.627Z,-1.48
2019-01-10T00:19:40.792Z,-1.50
2019-01-10T00:20:11.960Z,-1.49
2019-01-10T00:20:43.202Z,-1.51
2019-01-10T00:21:14.423Z,-1.54
2019-01-10T00:21:45.594Z,-1.58
2019-01-10T00:22:16.760Z,-1.58
2019-01-10T00:22:47.920Z,-1.54
2019-01-10T00:23:19.092Z,-1.55
2019-01-10T00:23:50.275Z,-1.48
2019-01-10T00:24:21.448Z,-1.44
2019-01-10T00:24:52.621Z,-1.33
2019-01-10T00:25:23.838Z,-1.27
2019-01-10T00:25:55.011Z,-1.18
2019-01-10T00:26:26.184Z,-1.14
2019-01-10T00:26:57.352Z,-1.11
2019-01-10T00:27:28.528Z,-1.14
2019-01-10T00:27:59.697Z,-1.15
2019-01-10T00:28:30.884Z,-1.28
2019-01-10T00:29:02.047Z,-1.34
2019-01-10T00:29:33.229Z,-1.38
2019-01-10T00:30:04.407Z,-1.38
2019-01-10T00:30:35.571Z,-1.37
2019-01-10T00:31:06.755Z,-1.40
2019-01-10T00:31:37.971Z,-1.39
2019-01-10T00:32:09.142Z,-1.43
2019-01-10T00:32:40.316Z,-1.47
2019-01-10T00:33:11.493Z,-1.48
2019-01-10T00:33:42.659Z,-1.45
2019-01-10T00:34:13.829Z,-1.50
2019-01-10T00:34:45.012Z,-1.52
2019-01-10T00:35:16.173Z,-1.54
2019-01-10T00:35:47.334Z,-1.56
2019-01-10T00:36:18.550Z,-1.58
2019-01-10T00:36:49.730Z,-1.63
2019-01-10T00:37:20.917Z,-1.66
2019-01-10T00:37:52.095Z,-1.66
2019-01-10T00:38:23.263Z,-1.60
2019-01-10T00:38:54.440Z,-1.54
2019-01-10T00:39:25.606Z,-1.54
2019-01-10T00:39:56.859Z,-1.51
2019-01-10T00:40:28.057Z,-1.49
2019-01-10T00:40:59.259Z,-1.53
2019-01-10T00:41:30.480Z,-1.59
2019-01-10T00:42:01.646Z,-1.59
2019-01-10T00:42:32.838Z,-1.61
2019-01-10T00:43:04.011Z,-1.57
2019-01-10T00:43:35.225Z,-1.56
2019-01-10T00:44:06.440Z,-1.58
2019-01-10T00:44:37.614Z,-1.58
2019-01-10T00:45:08.810Z,-1.58
2019-01-10T00:45:39.974Z,-1.55
2019-01-10T00:46:11.139Z,-1.53
2019-01-10T00:46:42.310Z,-1.45
2019-01-10T00:47:13.476Z,-1.45
2019-01-10T00:47:44.656Z,-1.43
2019-01-10T00:48:15.874Z,-1.41
2019-01-10T00:48:47.035Z,-1.38
2019-01-10T00:49:18.217Z,-1.36
2019-01-10T00:49:49.380Z,-1.32
2019-01-10T00:50:20.563Z,-1.31
2019-01-10T00:50:51.731Z,-1.31
2019-01-10T00:51:22.905Z,-1.35
2019-01-10T00:51:54.075Z,-1.38
2019-01-10T00:52:26.160Z,-1.38
2019-01-10T00:52:57.339Z,-1.38
2019-01-10T00:53:28.534Z,-1.36
2019-01-10T00:53:59.759Z,-1.35
2019-01-10T00:54:30.947Z,-1.30
2019-01-10T00:55:02.122Z,-1.28
2019-01-10T00:55:33.296Z,-1.29
2019-01-10T00:56:04.653Z,-1.29
2019-01-10T00:56:35.826Z,-1.30
2019-01-10T00:57:06.998Z,-1.32
2019-01-10T00:57:38.166Z,-1.30
2019-01-10T00:58:09.330Z,-1.29
2019-01-10T00:58:40.540Z,-1.27
2019-01-10T00:59:11.729Z,-1.29
2019-01-10T00:59:42.943Z,-1.31
2019-01-10T01:00:14.132Z,-1.33
2019-01-10T01:00:45.308Z,-1.34
2019-01-10T01:01:16.534Z,-1.35
2019-01-10T01:01:47.714Z,-1.33
2019-01-10T01:02:18.876Z,-1.32
2019-01-10T01:02:50.038Z,-1.33
2019-01-10T01:03:21.220Z,-1.32
2019-01-10T01:03:52.402Z,-1.30
2019-01-10T01:04:23.619Z,-1.31
2019-01-10T01:04:54.811Z,-1.86
2019-01-10T01:05:25.985Z,-1.29
2019-01-10T01:05:57.171Z,-1.28
2019-01-10T01:06:28.376Z,-1.29
2019-01-10T01:06:59.563Z,-1.27
2019-01-10T01:07:30.735Z,-1.26
2019-01-10T01:08:02.390Z,-1.24
2019-01-10T01:08:33.558Z,-1.27
2019-01-10T01:09:04.724Z,-1.24
2019-01-10T01:09:35.902Z,-1.27
2019-01-10T01:10:07.067Z,-1.25
2019-01-10T01:10:38.243Z,-1.26
2019-01-10T01:11:09.450Z,-1.25
2019-01-10T01:11:40.707Z,-1.24
2019-01-10T01:12:11.884Z,-1.20
2019-01-10T01:12:43.046Z,-1.18
2019-01-10T01:13:14.223Z,-1.17
2019-01-10T01:13:45.481Z,-1.17
2019-01-10T01:14:16.678Z,-1.14
2019-01-10T01:14:47.875Z,-1.13
2019-01-10T01:15:19.051Z,-1.13
2019-01-10T01:15:50.228Z,-1.13
2019-01-10T01:16:21.461Z,-1.12
2019-01-10T01:16:52.635Z,-1.13
2019-01-10T01:17:23.797Z,-1.13
2019-01-10T01:17:54.980Z,-1.09
2019-01-10T01:18:26.155Z,-1.04
2019-01-10T01:18:57.340Z,-1.00
2019-01-10T01:19:28.529Z,-1.00
2019-01-10T01:19:59.706Z,-1.02
2019-01-10T01:20:30.915Z,-0.97
2019-01-10T01:21:02.099Z,-0.97
2019-01-10T01:21:33.287Z,-0.95
2019-01-10T01:22:04.503Z,-0.94
2019-01-10T01:22:35.664Z,-0.89
2019-01-10T01:23:06.822Z,-0.89
2019-01-10T01:23:37.995Z,-0.87
2019-01-10T01:24:09.210Z,-0.89
2019-01-10T01:24:40.375Z,-0.88
2019-01-10T01:25:11.603Z,-0.87
2019-01-10T01:25:42.802Z,-0.87
2019-01-10T01:26:13.957Z,-0.86
2019-01-10T01:26:45.123Z,-0.83
2019-01-10T01:27:16.287Z,-0.79
2019-01-10T01:27:47.482Z,-0.76
2019-01-10T01:28:18.707Z,-0.74
2019-01-10T01:28:49.870Z,-0.76
2019-01-10T01:29:21.033Z,-0.77
2019-01-10T01:29:52.218Z,-0.77
2019-01-10T01:30:23.374Z,-0.77
2019-01-10T01:30:54.542Z,-0.78
2019-01-10T01:31:25.700Z,-0.78
2019-01-10T01:31:56.883Z,-0.82
2019-01-10T01:32:28.111Z,-0.76
2019-01-10T01:32:59.282Z,-0.74
2019-01-10T01:33:30.497Z,-0.70
2019-01-10T01:34:01.673Z,-0.70
2019-01-10T01:34:32.897Z,-0.73
2019-01-10T01:35:04.052Z,-0.72
2019-01-10T01:35:35.209Z,-0.76
2019-01-10T01:36:06.371Z,-0.76
2019-01-10T01:36:37.548Z,-0.79
2019-01-10T01:37:08.719Z,-0.79
2019-01-10T01:37:39.886Z,-0.82
2019-01-10T01:38:11.051Z,-0.84
2019-01-10T01:38:42.241Z,-0.84
2019-01-10T01:39:13.485Z,-0.81
2019-01-10T01:39:44.640Z,-0.79
2019-01-10T01:40:15.818Z,-0.86
2019-01-10T01:40:46.987Z,-0.86
2019-01-10T01:41:18.155Z,-0.80
2019-01-10T01:41:49.352Z,-0.80
2019-01-10T01:42:20.519Z,-0.80
2019-01-10T01:42:51.745Z,-0.81
2019-01-10T01:43:22.906Z,-0.83
2019-01-10T01:43:54.088Z,-0.81
2019-01-10T01:44:27.428Z,-0.81
2019-01-10T01:45:00.781Z,-0.82
2019-01-10T01:45:31.920Z,-0.80
2019-01-10T01:46:03.095Z,-0.83
2019-01-10T01:46:34.268Z,-0.77
2019-01-10T01:47:05.496Z,-0.80
2019-01-10T01:47:36.663Z,-0.72
2019-01-10T01:48:07.894Z,-0.71
2019-01-10T01:48:39.072Z,-0.69
2019-01-10T01:49:10.248Z,-0.65
2019-01-10T01:49:41.426Z,-0.63
2019-01-10T01:50:12.604Z,-0.64
2019-01-10T01:50:43.818Z,-0.61
2019-01-10T01:51:14.992Z,-0.62
2019-01-10T01:51:46.154Z,-0.63
2019-01-10T01:52:17.332Z,-0.61
2019-01-10T01:52:48.507Z,-0.61
2019-01-10T01:53:19.708Z,-0.60
2019-01-10T01:53:50.881Z,-0.63
2019-01-10T01:54:22.070Z,-0.63
2019-01-10T01:54:53.242Z,-0.65
2019-01-10T01:55:24.431Z,-0.64
2019-01-10T01:55:55.599Z,-0.64
2019-01-10T01:56:26.777Z,-0.63
2019-01-10T01:56:57.942Z,-0.63
2019-01-10T01:57:29.101Z,-0.63
2019-01-10T01:58:00.276Z,-0.63
2019-01-10T01:58:32.478Z,-0.55
2019-01-10T01:59:03.627Z,-0.57
2019-01-10T01:59:34.806Z,-0.57
2019-01-10T02:00:05.977Z,-0.52
2019-01-10T02:00:37.152Z,-0.52
2019-01-10T02:01:08.338Z,-0.57
2019-01-10T02:01:39.505Z,-0.57
2019-01-10T02:02:10.673Z,-0.56
2019-01-10T02:02:41.852Z,-0.59
2019-01-10T02:03:13.068Z,-0.62
2019-01-10T02:03:44.237Z,-0.63
2019-01-10T02:04:15.409Z,-0.61
2019-01-10T02:04:46.566Z,-0.61
2019-01-10T02:05:17.731Z,-0.61
2019-01-10T02:05:48.889Z,-0.63
2019-01-10T02:06:20.081Z,-0.58
2019-01-10T02:06:51.258Z,-0.59
2019-01-10T02:07:22.418Z,-0.64
2019-01-10T02:07:53.649Z,-0.64
2019-01-10T02:08:24.822Z,-0.65
2019-01-10T02:08:57.835Z,-0.68
2019-01-10T02:09:29.062Z,-0.70
2019-01-10T02:10:00.358Z,-0.69
2019-01-10T02:10:31.490Z,-0.68
2019-01-10T02:11:02.671Z,-0.64
2019-01-10T02:11:33.823Z,-0.64
2019-01-10T02:12:05.028Z,-0.64
2019-01-10T02:12:36.201Z,-0.64
2019-01-10T02:13:16.270Z,-0.62
2019-01-10T02:13:40.287Z,-0.61
2019-01-10T02:14:11.471Z,-0.60
2019-01-10T02:14:42.643Z,-0.59
2019-01-10T02:15:14.357Z,-0.61
2019-01-10T02:15:45.672Z,-0.61
2019-01-10T02:16:16.884Z,-0.59
2019-01-10T02:16:48.025Z,-0.57
2019-01-10T02:17:19.209Z,-0.57
2019-01-10T02:17:50.380Z,-0.55
2019-01-10T02:18:21.545Z,-0.54
2019-01-10T02:18:52.767Z,-0.51
2019-01-10T02:19:23.961Z,-0.51
2019-01-10T02:19:55.129Z,-0.50
2019-01-10T02:20:26.301Z,-0.50
2019-01-10T02:20:57.475Z,-0.50
2019-01-10T02:21:28.646Z,-0.50
2019-01-10T02:21:59.815Z,-0.46
2019-01-10T02:22:30.985Z,-0.44
2019-01-10T02:23:02.198Z,-0.41
2019-01-10T02:23:33.358Z,-0.37
2019-01-10T02:24:04.544Z,-0.36
2019-01-10T02:24:35.729Z,-0.33
2019-01-10T02:25:06.915Z,-0.33
2019-01-10T02:25:38.128Z,-0.36
2019-01-10T02:26:09.293Z,-0.35
2019-01-10T02:26:40.476Z,-0.29
2019-01-10T02:27:11.640Z,-0.28
2019-01-10T02:27:42.805Z,-0.28
2019-01-10T02:28:13.966Z,-0.33
2019-01-10T02:28:45.148Z,-0.29
2019-01-10T02:29:16.329Z,-0.35
2019-01-10T02:29:47.514Z,-0.30
2019-01-10T02:30:18.685Z,-0.29
2019-01-10T02:30:49.932Z,-0.27
2019-01-10T02:31:21.142Z,-0.28
2019-01-10T02:31:52.317Z,-0.27
2019-01-10T02:32:23.480Z,-0.26
2019-01-10T02:32:54.642Z,-0.26
2019-01-10T02:33:25.801Z,-0.23
2019-01-10T02:33:56.963Z,-0.19
2019-01-10T02:34:28.142Z,-0.17
2019-01-10T02:34:59.328Z,-0.17
2019-01-10T02:35:30.485Z,-0.20
2019-01-10T02:36:01.697Z,-0.15
2019-01-10T02:36:32.879Z,-0.18
2019-01-10T02:37:04.039Z,-0.18
2019-01-10T02:37:35.209Z,-0.15
2019-01-10T02:38:06.418Z,-0.16
2019-01-10T02:38:37.579Z,-0.13
2019-01-10T02:39:08.738Z,-0.11
2019-01-10T02:39:39.904Z,-0.13
2019-01-10T02:40:11.068Z,-0.14
2019-01-10T02:40:42.276Z,-0.12
2019-01-10T02:41:13.431Z,-0.10
2019-01-10T02:41:44.591Z,-0.08
2019-01-10T02:42:15.753Z,-0.08
2019-01-10T02:42:46.924Z,-0.07
2019-01-10T02:43:26.278Z,-0.06
2019-01-10T02:43:51.333Z,-0.02
2019-01-10T02:44:22.491Z,-0.02
2019-01-10T02:44:53.656Z,-0.02
2019-01-10T02:45:24.832Z,-0.02
2019-01-10T02:45:55.987Z,0.00
2019-01-10T02:46:27.138Z,0.02
2019-01-10T02:46:58.300Z,0.04
2019-01-10T02:47:29.505Z,0.04
2019-01-10T02:48:00.675Z,0.02
2019-01-10T02:48:31.903Z,0.01
2019-01-10T02:49:03.085Z,0.03
2019-01-10T02:49:34.256Z,0.02
2019-01-10T02:50:05.413Z,0.03
2019-01-10T02:50:36.589Z,0.06
2019-01-10T02:51:07.764Z,0.09
2019-01-10T02:51:38.929Z,0.10
2019-01-10T02:52:10.184Z,0.09
2019-01-10T02:52:41.368Z,0.10
2019-01-10T02:53:12.548Z,0.09
2019-01-10T02:53:43.750Z,0.08
2019-01-10T02:54:14.918Z,0.09
2019-01-10T02:54:46.088Z,0.11
2019-01-10T02:55:17.268Z,0.11
2019-01-10T02:55:48.412Z,0.14
2019-01-10T02:56:19.584Z,0.12
2019-01-10T02:56:50.753Z,0.09
2019-01-10T02:57:21.922Z,0.07
2019-01-10T02:57:53.094Z,0.08
2019-01-10T02:58:24.249Z,0.10
2019-01-10T02:58:56.369Z,0.13
2019-01-10T02:59:27.528Z,0.15
2019-01-10T02:59:58.717Z,0.14
2019-01-10T03:00:31.508Z,0.14
2019-01-10T03:01:02.829Z,0.14
2019-01-10T03:01:34.010Z,0.14
2019-01-10T03:02:05.172Z,0.15
2019-01-10T03:02:36.340Z,0.16
2019-01-10T03:03:07.559Z,0.16
2019-01-10T03:03:38.715Z,0.12
2019-01-10T03:04:09.897Z,0.13
2019-01-10T03:04:41.040Z,0.15
2019-01-10T03:05:12.214Z,0.18
2019-01-10T03:05:43.379Z,0.20
2019-01-10T03:06:14.557Z,0.20
2019-01-10T03:06:45.712Z,0.21
2019-01-10T03:07:16.876Z,0.24
2019-01-10T03:07:50.363Z,0.28
2019-01-10T03:08:21.583Z,0.29
2019-01-10T03:08:52.760Z,0.31
2019-01-10T03:09:23.930Z,0.34
2019-01-10T03:09:55.085Z,0.35
2019-01-10T03:10:26.342Z,0.35
2019-01-10T03:10:57.501Z,0.36
2019-01-10T03:11:28.668Z,0.36
2019-01-10T03:11:59.996Z,0.39
2019-01-10T03:12:31.163Z,0.43
2019-01-10T03:13:02.359Z,0.45
2019-01-10T03:13:36.810Z,0.46
2019-01-10T03:14:06.496Z,0.46
2019-01-10T03:14:37.663Z,0.45
2019-01-10T03:15:08.833Z,0.43
2019-01-10T03:15:39.997Z,0.43
2019-01-10T03:16:11.155Z,0.44
2019-01-10T03:16:42.317Z,0.48
2019-01-10T03:17:13.501Z,0.50
2019-01-10T03:17:44.666Z,0.54
2019-01-10T03:18:15.885Z,0.56
2019-01-10T03:18:47.053Z,0.60
2019-01-10T03:19:18.229Z,0.62
2019-01-10T03:19:49.384Z,0.62
2019-01-10T03:20:20.566Z,0.62
2019-01-10T03:20:52.688Z,0.62
2019-01-10T03:21:23.994Z,0.61
2019-01-10T03:21:55.152Z,0.59
2019-01-10T03:22:26.311Z,0.62
2019-01-10T03:22:57.482Z,0.65
2019-01-10T03:23:28.686Z,0.66
2019-01-10T03:23:59.841Z,0.66
2019-01-10T03:24:31.010Z,0.65
2019-01-10T03:25:02.380Z,0.64
2019-01-10T03:25:33.525Z,0.60
2019-01-10T03:26:04.718Z,0.62
2019-01-10T03:26:35.889Z,0.65
2019-01-10T03:27:07.088Z,0.68
2019-01-10T03:27:38.247Z,0.73
2019-01-10T03:28:09.449Z,0.81
2019-01-10T03:28:40.605Z,0.85
2019-01-10T03:29:11.860Z,0.86
2019-01-10T03:29:43.041Z,0.87
2019-01-10T03:30:14.209Z,0.89
2019-01-10T03:30:45.361Z,0.86
2019-01-10T03:31:16.536Z,0.82
2019-01-10T03:31:47.769Z,0.80
2019-01-10T03:32:18.936Z,0.80
2019-01-10T03:32:50.104Z,0.80
2019-01-10T03:33:21.303Z,0.52
2019-01-10T03:33:52.526Z,0.83
2019-01-10T03:34:23.749Z,0.81
2019-01-10T03:34:54.956Z,0.80
2019-01-10T03:35:26.989Z,0.80
2019-01-10T03:35:58.251Z,0.79
2019-01-10T03:36:29.456Z,0.79
2019-01-10T03:37:00.656Z,0.78
2019-01-10T03:37:31.813Z,0.79
2019-01-10T03:38:02.990Z,0.78
2019-01-10T03:38:34.155Z,0.80
2019-01-10T03:39:05.316Z,0.77
2019-01-10T03:39:36.487Z,0.79
2019-01-10T03:40:07.665Z,0.86
2019-01-10T03:40:38.828Z,0.90
2019-01-10T03:41:10.007Z,0.89
2019-01-10T03:41:41.161Z,0.91
2019-01-10T03:42:12.409Z,0.90
2019-01-10T03:42:43.574Z,0.90
2019-01-10T03:43:16.469Z,0.87
2019-01-10T03:43:47.908Z,0.85
2019-01-10T03:44:19.107Z,0.87
2019-01-10T03:44:50.289Z,0.86
2019-01-10T03:45:21.449Z,0.85
2019-01-10T03:45:52.630Z,0.83
2019-01-10T03:46:23.791Z,0.82
2019-01-10T03:46:55.002Z,0.83
2019-01-10T03:47:26.180Z,0.85
2019-01-10T03:47:57.403Z,0.85
2019-01-10T03:48:28.557Z,0.84
2019-01-10T03:48:59.721Z,0.82
2019-01-10T03:49:30.894Z,0.83
2019-01-10T03:50:02.042Z,0.84
2019-01-10T03:50:33.204Z,0.86
2019-01-10T03:51:04.380Z,0.87
2019-01-10T03:51:35.555Z,0.88
2019-01-10T03:52:06.722Z,0.88
2019-01-10T03:52:37.878Z,0.90
2019-01-10T03:53:09.098Z,0.92
2019-01-10T03:53:40.269Z,0.92
2019-01-10T03:54:11.452Z,0.92
2019-01-10T03:54:42.621Z,0.92
2019-01-10T03:55:13.774Z,0.93
2019-01-10T03:55:44.939Z,0.93
2019-01-10T03:56:16.098Z,0.90
2019-01-10T03:56:47.256Z,0.87
2019-01-10T03:57:18.432Z,0.88
2019-01-10T03:57:49.601Z,0.89
2019-01-10T03:58:20.840Z,0.88
2019-01-10T03:58:52.033Z,0.87
2019-01-10T03:59:23.187Z,0.87
2019-01-10T03:59:54.383Z,0.86
2019-01-10T04:00:25.592Z,0.89
2019-01-10T04:00:56.801Z,0.92
2019-01-10T04:01:27.964Z,0.95
2019-01-10T04:01:59.142Z,0.96
2019-01-10T04:02:30.317Z,0.98
2019-01-10T04:03:01.484Z,0.96
2019-01-10T04:03:32.654Z,0.96
2019-01-10T04:04:03.858Z,0.98
2019-01-10T04:04:35.015Z,0.98
2019-01-10T04:05:06.173Z,0.97
2019-01-10T04:05:37.351Z,0.98
2019-01-10T04:06:08.507Z,0.98
2019-01-10T04:06:39.844Z,0.98
2019-01-10T04:07:11.070Z,0.99
2019-01-10T04:07:42.239Z,1.00
2019-01-10T04:08:13.403Z,1.05
2019-01-10T04:08:44.566Z,0.03
2019-01-10T04:09:15.736Z,1.07
2019-01-10T04:09:46.906Z,1.03
2019-01-10T04:10:18.073Z,1.03
2019-01-10T04:10:50.340Z,1.04
2019-01-10T04:11:21.491Z,1.02
2019-01-10T04:11:52.655Z,1.05
2019-01-10T04:12:23.869Z,1.09
2019-01-10T04:12:55.046Z,1.09
2019-01-10T04:13:26.241Z,1.12
2019-01-10T04:13:57.819Z,1.16
2019-01-10T04:14:29.035Z,1.15
2019-01-10T04:15:00.333Z,1.15
2019-01-10T04:15:31.436Z,1.16
2019-01-10T04:16:02.600Z,1.18
2019-01-10T04:16:33.759Z,1.22
2019-01-10T04:17:04.939Z,1.25
2019-01-10T04:17:36.161Z,1.27
2019-01-10T04:18:07.314Z,1.30
2019-01-10T04:18:38.479Z,1.31
2019-01-10T04:19:09.629Z,1.32
2019-01-10T04:19:40.801Z,1.34
2019-01-10T04:20:11.954Z,1.35
2019-01-10T04:20:43.127Z,1.39
2019-01-10T04:21:17.539Z,1.38
2019-01-10T04:21:47.202Z,1.34
2019-01-10T04:22:18.418Z,1.34
2019-01-10T04:22:49.584Z,1.36
2019-01-10T04:23:20.752Z,1.36
2019-01-10T04:23:51.908Z,1.39
2019-01-10T04:24:23.071Z,1.41
2019-01-10T04:24:54.258Z,1.42
2019-01-10T04:25:25.427Z,1.41
2019-01-10T04:25:56.587Z,1.42
2019-01-10T04:26:27.748Z,1.42
2019-01-10T04:26:58.973Z,1.40
2019-01-10T04:27:30.140Z,1.38
2019-01-10T04:28:01.355Z,1.34
2019-01-10T04:28:32.521Z,1.34
2019-01-10T04:29:03.684Z,1.34
2019-01-10T04:29:34.846Z,1.32
2019-01-10T04:30:06.029Z,1.28
2019-01-10T04:30:37.192Z,1.30
2019-01-10T04:31:08.352Z,1.29
2019-01-10T04:31:39.518Z,1.27
2019-01-10T04:32:10.705Z,1.25
2019-01-10T04:32:41.881Z,1.26
2019-01-10T04:33:13.094Z,1.25
2019-01-10T04:33:44.251Z,1.26
2019-01-10T04:34:15.415Z,1.26
2019-01-10T04:34:46.574Z,1.26
2019-01-10T04:35:17.733Z,1.21
2019-01-10T04:35:48.905Z,1.19
2019-01-10T04:36:20.062Z,1.21
2019-01-10T04:36:51.251Z,1.22
2019-01-10T04:37:22.425Z,1.22
2019-01-10T04:37:53.588Z,1.28
2019-01-10T04:38:24.805Z,1.29
2019-01-10T04:38:55.973Z,1.31
2019-01-10T04:39:27.152Z,1.30
2019-01-10T04:39:58.332Z,1.31
2019-01-10T04:40:29.496Z,1.31
2019-01-10T04:41:00.672Z,1.32
2019-01-10T04:41:31.847Z,1.34
2019-01-10T04:42:03.052Z,1.36
2019-01-10T04:42:34.219Z,1.36
2019-01-10T04:43:05.427Z,1.38
2019-01-10T04:43:36.619Z,1.40
2019-01-10T04:44:07.774Z,1.38
2019-01-10T04:44:38.934Z,1.35
2019-01-10T04:45:10.100Z,1.34
2019-01-10T04:45:41.262Z,1.34
2019-01-10T04:46:12.474Z,1.32
2019-01-10T04:46:43.639Z,1.30
2019-01-10T04:47:14.796Z,1.28
2019-01-10T04:47:45.970Z,1.26
2019-01-10T04:48:18.209Z,1.25
2019-01-10T04:48:49.373Z,1.23
2019-01-10T04:49:20.529Z,1.20
2019-01-10T04:49:51.708Z,1.18
2019-01-10T04:50:22.866Z,1.18
2019-01-10T04:50:54.019Z,1.17
2019-01-10T04:51:25.213Z,1.16
2019-01-10T04:51:56.380Z,1.13
2019-01-10T04:52:27.545Z,1.14
2019-01-10T04:52:58.713Z,1.13
2019-01-10T04:53:29.960Z,1.14
2019-01-10T04:54:01.124Z,1.15
2019-01-10T04:54:32.312Z,1.15
2019-01-10T04:55:03.469Z,1.16
2019-01-10T04:55:34.637Z,1.19
2019-01-10T04:56:05.802Z,1.20
2019-01-10T04:56:37.000Z,1.17
2019-01-10T04:57:08.145Z,1.17
2019-01-10T04:57:39.300Z,1.15
2019-01-10T04:58:10.443Z,1.17
2019-01-10T04:58:41.670Z,1.19
2019-01-10T04:59:12.831Z,1.23
2019-01-10T04:59:44.002Z,1.25
2019-01-10T05:00:15.175Z,1.26
2019-01-10T05:00:46.337Z,1.28
2019-01-10T05:01:17.485Z,1.31
2019-01-10T05:01:48.698Z,1.32
2019-01-10T05:02:19.826Z,1.30
2019-01-10T05:02:50.986Z,1.27
2019-01-10T05:03:22.171Z,1.26
2019-01-10T05:03:53.381Z,1.27
2019-01-10T05:04:24.539Z,1.27
2019-01-10T05:04:55.713Z,1.26
2019-01-10T05:05:26.883Z,1.28
2019-01-10T05:05:58.042Z,1.31
2019-01-10T05:06:29.210Z,1.32
2019-01-10T05:07:00.369Z,1.34
2019-01-10T05:07:31.524Z,1.34
2019-01-10T05:08:02.693Z,1.32
2019-01-10T05:08:33.919Z,1.34
2019-01-10T05:09:05.083Z,1.36
2019-01-10T05:09:36.264Z,1.37
2019-01-10T05:10:07.430Z,1.39
2019-01-10T05:10:38.590Z,1.39
2019-01-10T05:11:11.331Z,1.39
2019-01-10T05:11:42.686Z,1.39
2019-01-10T05:12:13.858Z,1.37
2019-01-10T05:12:45.020Z,1.37
2019-01-10T05:13:16.231Z,1.37
2019-01-10T05:13:47.399Z,1.40
2019-01-10T05:14:18.584Z,1.43
2019-01-10T05:14:49.754Z,1.43
2019-01-10T05:15:20.917Z,1.44
2019-01-10T05:15:52.084Z,1.46
2019-01-10T05:16:23.296Z,1.45
2019-01-10T05:16:54.479Z,1.45
2019-01-10T05:17:25.655Z,1.44
2019-01-10T05:17:56.827Z,1.44
2019-01-10T05:18:27.986Z,1.44
2019-01-10T05:18:59.150Z,1.42
2019-01-10T05:19:30.324Z,1.44
2019-01-10T05:20:01.482Z,1.45
2019-01-10T05:20:32.675Z,0.93
2019-01-10T05:21:03.852Z,1.49
2019-01-10T05:21:35.058Z,1.50
2019-01-10T05:22:06.288Z,1.52
2019-01-10T05:22:37.451Z,1.54
2019-01-10T05:23:08.616Z,1.53
2019-01-10T05:23:39.784Z,1.53
2019-01-10T05:24:11.777Z,1.54
2019-01-10T05:24:42.923Z,1.52
2019-01-10T05:25:14.080Z,1.52
2019-01-10T05:25:45.256Z,1.54
2019-01-10T05:26:16.437Z,1.56
2019-01-10T05:26:47.595Z,1.56
2019-01-10T05:27:18.757Z,1.55
2019-01-10T05:27:49.932Z,1.53
2019-01-10T05:28:21.104Z,1.53
2019-01-10T05:28:52.303Z,1.53
2019-01-10T05:29:23.479Z,1.52
2019-01-10T05:29:54.632Z,1.51
2019-01-10T05:30:25.850Z,1.48
2019-01-10T05:30:57.020Z,1.49
2019-01-10T05:31:28.210Z,1.48
2019-01-10T05:31:59.371Z,1.46
2019-01-10T05:32:30.540Z,1.44
2019-01-10T05:33:01.765Z,1.47
2019-01-10T05:33:32.923Z,1.48
2019-01-10T05:34:04.098Z,1.49
2019-01-10T05:34:35.282Z,1.45
2019-01-10T05:35:06.457Z,1.42
2019-01-10T05:35:37.621Z,1.37
2019-01-10T05:36:08.785Z,1.35
2019-01-10T05:36:39.948Z,1.32
2019-01-10T05:37:11.100Z,1.28
2019-01-10T05:37:42.270Z,1.23
2019-01-10T05:38:13.528Z,1.23
2019-01-10T05:38:44.664Z,1.22
2019-01-10T05:39:16.115Z,1.23
2019-01-10T05:39:47.964Z,1.23
2019-01-10T05:40:20.174Z,1.23
2019-01-10T05:40:51.355Z,1.23
2019-01-10T05:41:22.530Z,1.23
2019-01-10T05:41:53.703Z,1.25
2019-01-10T05:42:24.858Z,1.27
2019-01-10T05:42:56.028Z,1.30
2019-01-10T05:43:27.196Z,1.33
2019-01-10T05:43:58.418Z,1.33
2019-01-10T05:44:29.596Z,1.34
2019-01-10T05:45:00.782Z,1.33
2019-01-10T05:45:31.954Z,1.36
2019-01-10T05:46:03.107Z,1.35
2019-01-10T05:46:34.300Z,1.37
2019-01-10T05:47:05.481Z,1.36
2019-01-10T05:47:36.649Z,1.36
2019-01-10T05:48:07.814Z,1.37
2019-01-10T05:48:38.970Z,1.41
2019-01-10T05:49:10.185Z,1.44
2019-01-10T05:49:41.346Z,1.45
2019-01-10T05:50:12.513Z,1.47
2019-01-10T05:50:43.944Z,1.48
2019-01-10T05:51:15.143Z,1.45
2019-01-10T05:51:46.312Z,1.44
2019-01-10T05:52:17.515Z,1.46
2019-01-10T05:52:48.690Z,1.47
2019-01-10T05:53:19.841Z,1.47
2019-01-10T05:53:51.006Z,1.48
2019-01-10T05:54:22.189Z,1.49
2019-01-10T05:54:53.344Z,1.51
2019-01-10T05:55:24.538Z,1.53
2019-01-10T05:55:55.731Z,1.55
2019-01-10T05:56:26.942Z,1.56
2019-01-10T05:56:58.186Z,1.56
2019-01-10T05:57:29.339Z,1.58
2019-01-10T05:58:00.511Z,1.59
2019-01-10T05:58:31.679Z,1.61
2019-01-10T05:59:02.839Z,1.59
2019-01-10T05:59:34.012Z,1.60
2019-01-10T06:00:05.161Z,1.63
2019-01-10T06:00:36.371Z,1.63
2019-01-10T06:01:07.602Z,1.63
2019-01-10T06:01:38.793Z,1.66
2019-01-10T06:02:09.960Z,1.64
2019-01-10T06:02:41.122Z,1.67
2019-01-10T06:03:12.344Z,1.65
2019-01-10T06:03:43.508Z,1.64
2019-01-10T06:04:14.668Z,1.62
2019-01-10T06:04:45.831Z,1.60
2019-01-10T06:05:17.010Z,1.57
2019-01-10T06:05:48.269Z,1.56
2019-01-10T06:06:19.419Z,1.57
2019-01-10T06:06:50.685Z,1.55
2019-01-10T06:07:21.845Z,1.55
2019-01-10T06:07:53.008Z,1.56
2019-01-10T06:08:24.175Z,1.57
2019-01-10T06:08:55.381Z,1.54
2019-01-10T06:09:26.560Z,1.53
2019-01-10T06:09:57.738Z,1.50
2019-01-10T06:10:28.902Z,1.50
2019-01-10T06:11:00.067Z,1.49
2019-01-10T06:11:31.234Z,1.46
2019-01-10T06:12:02.397Z,1.42
2019-01-10T06:12:33.570Z,1.39
2019-01-10T06:13:04.735Z,1.40
2019-01-10T06:13:35.911Z,1.43
2019-01-10T06:14:07.077Z,1.47
2019-01-10T06:14:38.263Z,1.49
2019-01-10T06:15:09.426Z,1.50
2019-01-10T06:15:40.586Z,1.50
2019-01-10T06:16:11.758Z,1.50
2019-01-10T06:16:45.135Z,1.50
2019-01-10T06:17:15.892Z,1.51
2019-01-10T06:17:47.044Z,1.50
2019-01-10T06:18:18.250Z,1.53
2019-01-10T06:18:49.442Z,1.53
2019-01-10T06:19:26.809Z,1.51
2019-01-10T06:19:53.478Z,1.50
2019-01-10T06:20:24.639Z,1.47
2019-01-10T06:20:56.184Z,1.47
2019-01-10T06:21:27.374Z,1.44
2019-01-10T06:21:58.535Z,1.42
2019-01-10T06:22:29.701Z,1.39
2019-01-10T06:23:00.872Z,1.37
2019-01-10T06:23:32.112Z,1.39
2019-01-10T06:24:03.302Z,1.40
2019-01-10T06:24:34.460Z,1.42
2019-01-10T06:25:05.644Z,1.45
2019-01-10T06:25:36.813Z,1.45
2019-01-10T06:26:07.997Z,1.48
2019-01-10T06:26:39.209Z,1.49
2019-01-10T06:27:10.370Z,1.47
2019-01-10T06:27:41.553Z,1.48
2019-01-10T06:28:12.713Z,1.52
2019-01-10T06:28:45.314Z,1.52
2019-01-10T06:29:16.642Z,1.48
2019-01-10T06:29:47.811Z,1.48
2019-01-10T06:30:19.072Z,1.48
2019-01-10T06:30:50.229Z,1.45
2019-01-10T06:31:21.439Z,1.43
2019-01-10T06:31:52.599Z,1.43
2019-01-10T06:32:23.757Z,1.42
2019-01-10T06:32:54.920Z,1.42
2019-01-10T06:33:26.084Z,1.42
2019-01-10T06:33:57.294Z,1.42
2019-01-10T06:34:28.453Z,1.46
2019-01-10T06:34:59.644Z,1.45
2019-01-10T06:35:30.886Z,1.45
2019-01-10T06:36:02.062Z,1.43
2019-01-10T06:36:33.246Z,1.41
2019-01-10T06:37:04.415Z,1.41
2019-01-10T06:37:35.573Z,1.42
2019-01-10T06:38:06.738Z,1.41
2019-01-10T06:38:37.912Z,1.41
2019-01-10T06:39:09.076Z,1.43
2019-01-10T06:39:40.283Z,1.45
2019-01-10T06:40:11.451Z,1.45
2019-01-10T06:40:42.631Z,1.48
2019-01-10T06:41:13.799Z,0.42
2019-01-10T06:41:44.959Z,1.46
2019-01-10T06:42:16.167Z,1.52
2019-01-10T06:42:47.353Z,1.55
2019-01-10T06:43:18.556Z,1.58
2019-01-10T06:43:49.800Z,1.60
2019-01-10T06:44:21.595Z,1.66
2019-01-10T06:44:52.813Z,1.72
2019-01-10T06:45:23.974Z,1.74
2019-01-10T06:45:55.135Z,1.85
2019-01-10T06:46:26.322Z,1.93
2019-01-10T06:46:57.485Z,1.61
2019-01-10T06:47:28.711Z,2.01
2019-01-10T06:47:59.882Z,2.02
2019-01-10T06:48:31.091Z,1.97
2019-01-10T06:49:02.305Z,1.97
2019-01-10T06:49:33.463Z,1.96
2019-01-10T06:50:04.635Z,1.95